sensor_id;sensor_type;location;lat;lon;timestamp;P1;P2;P0
76045;PMS7003;64741;41.730;44.788;2023-12-20T00:02:08;7.6;7.4;5.6
76045;PMS7003;64741;41.730;44.788;2023-12-20T00:07:02;7.4;6.4;4.8
76045;PMS7003;64741;41.730;44.788;2023-12-20T00:12:12;7.6;7.2;5.2
76045;PMS7003;64741;41.730;44.788;2023-12-20T00:17:02;7;6.4;5
76045;PMS7003;64741;41.730;44.788;2023-12-20T00:22:12;8.2;6.8;5.2
76045;PMS7003;64741;41.730;44.788;2023-12-20T00:27:08;7;6.4;5.2
76045;PMS7003;64741;41.730;44.788;2023-12-20T00:32:00;6;5.6;4.4
76045;PMS7003;64741;41.730;44.788;2023-12-20T00:37:12;6;5.8;4.4
76045;PMS7003;64741;41.730;44.788;2023-12-20T00:41:48;6.6;6.2;4.8
76045;PMS7003;64741;41.730;44.788;2023-12-20T00:46:58;7.6;6.2;4.8
76045;PMS7003;64741;41.730;44.788;2023-12-20T00:52:06;6;5.3;4.3
76045;PMS7003;64741;41.730;44.788;2023-12-20T00:57:00;6.4;6;4.2
76045;PMS7003;64741;41.730;44.788;2023-12-20T01:02:12;6.8;5.8;4.6
76045;PMS7003;64741;41.730;44.788;2023-12-20T01:07:02;6.4;5.6;4.4
76045;PMS7003;64741;41.730;44.788;2023-12-20T01:12:12;7.2;6.4;4.8
76045;PMS7003;64741;41.730;44.788;2023-12-20T01:17:08;7;6.2;4.8
76045;PMS7003;64741;41.730;44.788;2023-12-20T01:22:02;6;5.2;4.2
76045;PMS7003;64741;41.730;44.788;2023-12-20T01:27:12;6.6;5.2;3.8
76045;PMS7003;64741;41.730;44.788;2023-12-20T01:31:30;5;4.6;3.6
76045;PMS7003;64741;41.730;44.788;2023-12-20T01:37:12;5.8;4.4;3.6
76045;PMS7003;64741;41.730;44.788;2023-12-20T01:42:06;6.8;5.2;4
76045;PMS7003;64741;41.730;44.788;2023-12-20T01:47:02;6.4;5.6;4.4
76045;PMS7003;64741;41.730;44.788;2023-12-20T01:52:00;5.8;4.8;3.6
76045;PMS7003;64741;41.730;44.788;2023-12-20T01:57:01;5.4;4.6;3.6
76045;PMS7003;64741;41.730;44.788;2023-12-20T02:02:12;6;4.8;3.4
76045;PMS7003;64741;41.730;44.788;2023-12-20T02:07:08;7.2;5.6;3.8
76045;PMS7003;64741;41.730;44.788;2023-12-20T02:12:03;5.6;4.4;2.8
76045;PMS7003;64741;41.730;44.788;2023-12-20T02:17:12;5;4.4;3.4
76045;PMS7003;64741;41.730;44.788;2023-12-20T02:22:06;5.8;4.4;3.6
76045;PMS7003;64741;41.730;44.788;2023-12-20T02:27:12;5.2;4.6;3
76045;PMS7003;64741;41.730;44.788;2023-12-20T02:32:08;5.6;4.2;3.2
76045;PMS7003;64741;41.730;44.788;2023-12-20T02:36:52;5;4.2;3
76045;PMS7003;64741;41.730;44.788;2023-12-20T02:42:03;4.8;4;3.2
76045;PMS7003;64741;41.730;44.788;2023-12-20T02:47:12;5;4.2;3.2
76045;PMS7003;64741;41.730;44.788;2023-12-20T02:52:08;5.4;4;3.4
76045;PMS7003;64741;41.730;44.788;2023-12-20T02:57:12;5;4;2.8
76045;PMS7003;64741;41.730;44.788;2023-12-20T03:02:12;3.8;3.4;2.2
76045;PMS7003;64741;41.730;44.788;2023-12-20T03:07:03;4.8;4.6;3.4
76045;PMS7003;64741;41.730;44.788;2023-12-20T03:12:13;4.4;4;3.2
76045;PMS7003;64741;41.730;44.788;2023-12-20T03:17:08;4.2;3.8;3.2
76045;PMS7003;64741;41.730;44.788;2023-12-20T03:22:03;5.4;4;3
76045;PMS7003;64741;41.730;44.788;2023-12-20T03:27:13;4.2;4;2.8
76045;PMS7003;64741;41.730;44.788;2023-12-20T03:32:03;3.2;3.2;2.4
76045;PMS7003;64741;41.730;44.788;2023-12-20T03:37:13;4.4;3.8;2.6
76045;PMS7003;64741;41.730;44.788;2023-12-20T03:42:08;4.8;4;3.2
76045;PMS7003;64741;41.730;44.788;2023-12-20T03:47:12;4.4;4;2.8
76045;PMS7003;64741;41.730;44.788;2023-12-20T03:51:24;4.4;3.8;2.8
76045;PMS7003;64741;41.730;44.788;2023-12-20T03:57:03;4.8;3.6;3
76045;PMS7003;64741;41.730;44.788;2023-12-20T04:02:05;4;3.6;2.8
76045;PMS7003;64741;41.730;44.788;2023-12-20T04:07:09;4.2;3.4;2.6
76045;PMS7003;64741;41.730;44.788;2023-12-20T04:12:11;3.4;2.8;2
76045;PMS7003;64741;41.730;44.788;2023-12-20T04:17:13;3.8;3;2.6
76045;PMS7003;64741;41.730;44.788;2023-12-20T04:22:03;5;4.2;3
76045;PMS7003;64741;41.730;44.788;2023-12-20T04:27:13;5;4.4;3
76045;PMS7003;64741;41.730;44.788;2023-12-20T04:32:09;4;3.4;2.4
76045;PMS7003;64741;41.730;44.788;2023-12-20T04:37:13;3;2.4;1.8
76045;PMS7003;64741;41.730;44.788;2023-12-20T04:42:13;4.4;4;3
76045;PMS7003;64741;41.730;44.788;2023-12-20T04:47:03;4.4;3.6;2.8
76045;PMS7003;64741;41.730;44.788;2023-12-20T04:51:51;5;3.2;2.6
76045;PMS7003;64741;41.730;44.788;2023-12-20T04:57:09;5.2;4.8;3.4
76045;PMS7003;64741;41.730;44.788;2023-12-20T05:02:13;3.8;3.4;2.6
76045;PMS7003;64741;41.730;44.788;2023-12-20T05:07:11;4.8;4;3.2
76045;PMS7003;64741;41.730;44.788;2023-12-20T05:12:03;4.8;4.4;2.8
76045;PMS7003;64741;41.730;44.788;2023-12-20T05:17:13;4.8;4.4;3.2
76045;PMS7003;64741;41.730;44.788;2023-12-20T05:21:59;4.8;3.6;2.8
76045;PMS7003;64741;41.730;44.788;2023-12-20T05:27:13;4.4;4.2;3.2
76045;PMS7003;64741;41.730;44.788;2023-12-20T05:32:13;4.8;4.2;3.2
76045;PMS7003;64741;41.730;44.788;2023-12-20T05:37:03;6.4;4.8;4
76045;PMS7003;64741;41.730;44.788;2023-12-20T05:42:13;8;7.4;5.4
76045;PMS7003;64741;41.730;44.788;2023-12-20T05:46:33;9.2;7.8;5.4
76045;PMS7003;64741;41.730;44.788;2023-12-20T05:52:11;7.6;7;5.4
76045;PMS7003;64741;41.730;44.788;2023-12-20T05:57:13;8.2;6.8;5.2
76045;PMS7003;64741;41.730;44.788;2023-12-20T06:01:45;7.5;7;5.3
76045;PMS7003;64741;41.730;44.788;2023-12-20T06:07:13;7.4;6.2;5
76045;PMS7003;64741;41.730;44.788;2023-12-20T06:11:41;8;7.2;5
76045;PMS7003;64741;41.730;44.788;2023-12-20T06:17:13;8.4;6;5
76045;PMS7003;64741;41.730;44.788;2023-12-20T06:22:05;7.2;5.8;4.8
76045;PMS7003;64741;41.730;44.788;2023-12-20T06:27:03;7.8;6.6;5.2
76045;PMS7003;64741;41.730;44.788;2023-12-20T06:32:13;9;7;5.4
76045;PMS7003;64741;41.730;44.788;2023-12-20T06:37:09;7;6.2;4.6
76045;PMS7003;64741;41.730;44.788;2023-12-20T06:42:03;7;6.2;5
76045;PMS7003;64741;41.730;44.788;2023-12-20T06:47:13;7;5.8;5
76045;PMS7003;64741;41.730;44.788;2023-12-20T06:51:55;5.6;5.4;4.4
76045;PMS7003;64741;41.730;44.788;2023-12-20T06:57:13;7.8;6.2;4.8
76045;PMS7003;64741;41.730;44.788;2023-12-20T07:02:07;7.4;6;4.2
76045;PMS7003;64741;41.730;44.788;2023-12-20T07:07:05;7;6.6;4.8
76045;PMS7003;64741;41.730;44.788;2023-12-20T07:12:15;6.6;5.4;4.2
76045;PMS7003;64741;41.730;44.788;2023-12-20T07:16:55;7.6;6.4;4.4
76045;PMS7003;64741;41.730;44.788;2023-12-20T07:22:15;8.6;7.2;5.8
76045;PMS7003;64741;41.730;44.788;2023-12-20T07:27:09;20;18.2;14.2
76045;PMS7003;64741;41.730;44.788;2023-12-20T07:31:55;21.4;19.2;14.6
76045;PMS7003;64741;41.730;44.788;2023-12-20T07:37:13;24.6;22.2;16.8
76045;PMS7003;64741;41.730;44.788;2023-12-20T07:42:03;30.2;26.8;20.4
76045;PMS7003;64741;41.730;44.788;2023-12-20T07:47:11;39.4;34.2;24.2
76045;PMS7003;64741;41.730;44.788;2023-12-20T07:52:05;75.4;65.2;49.4
76045;PMS7003;64741;41.730;44.788;2023-12-20T07:56:41;71;58.6;44.8
76045;PMS7003;64741;41.730;44.788;2023-12-20T08:02:11;63.8;50;36.6
76045;PMS7003;64741;41.730;44.788;2023-12-20T08:07:05;62.8;49;35.8
76045;PMS7003;64741;41.730;44.788;2023-12-20T08:12:15;53.2;43.2;31.2
76045;PMS7003;64741;41.730;44.788;2023-12-20T08:17:09;49.6;40.2;29
76045;PMS7003;64741;41.730;44.788;2023-12-20T08:22:05;45.4;37;27.4
76045;PMS7003;64741;41.730;44.788;2023-12-20T08:27:13;43.4;35.2;26
76045;PMS7003;64741;41.730;44.788;2023-12-20T08:31:53;38;33.4;24.4
76045;PMS7003;64741;41.730;44.788;2023-12-20T08:37:15;37.8;32.8;24
76045;PMS7003;64741;41.730;44.788;2023-12-20T08:42:09;32.4;29.8;22
76045;PMS7003;64741;41.730;44.788;2023-12-20T08:47:05;31.6;29.2;21.2
76045;PMS7003;64741;41.730;44.788;2023-12-20T08:52:11;31.4;28;21
76045;PMS7003;64741;41.730;44.788;2023-12-20T08:57:03;31;28;21.2
76045;PMS7003;64741;41.730;44.788;2023-12-20T09:02:13;28.6;25;19.8
76045;PMS7003;64741;41.730;44.788;2023-12-20T09:06:59;29.6;27.4;19.8
76045;PMS7003;64741;41.730;44.788;2023-12-20T09:11:45;35.4;31.4;23.2
76045;PMS7003;64741;41.730;44.788;2023-12-20T09:17:13;34.8;30.2;22.6
76045;PMS7003;64741;41.730;44.788;2023-12-20T09:21:55;31.8;28.8;21.8
76045;PMS7003;64741;41.730;44.788;2023-12-20T09:27:13;30.8;27.8;20.8
76045;PMS7003;64741;41.730;44.788;2023-12-20T09:32:09;28.4;26.6;20
76045;PMS7003;64741;41.730;44.788;2023-12-20T09:37:03;26.6;23.4;18.6
76045;PMS7003;64741;41.730;44.788;2023-12-20T09:42:16;25;23.4;18.4
76045;PMS7003;64741;41.730;44.788;2023-12-20T09:47:03;22.4;20.8;16.6
76045;PMS7003;64741;41.730;44.788;2023-12-20T09:51:57;23.8;22.2;17.6
76045;PMS7003;64741;41.730;44.788;2023-12-20T09:57:11;21.6;20.8;16.4
76045;PMS7003;64741;41.730;44.788;2023-12-20T10:02:03;20.4;17.8;14.2
76045;PMS7003;64741;41.730;44.788;2023-12-20T10:07:13;20.8;19.8;16.2
76045;PMS7003;64741;41.730;44.788;2023-12-20T10:12:05;18;15.4;12.8
76045;PMS7003;64741;41.730;44.788;2023-12-20T10:17:13;20;18.2;14.4
76045;PMS7003;64741;41.730;44.788;2023-12-20T10:22:09;20;17.2;14.2
76045;PMS7003;64741;41.730;44.788;2023-12-20T10:27:05;54.4;45.4;30.8
76045;PMS7003;64741;41.730;44.788;2023-12-20T10:32:21;100.4;87.4;58.4
76045;PMS7003;64741;41.730;44.788;2023-12-20T10:37:07;99.8;86.4;58.6
76045;PMS7003;64741;41.730;44.788;2023-12-20T10:42:15;91.4;79.2;52
76045;PMS7003;64741;41.730;44.788;2023-12-20T10:46:47;82.2;72;48.2
76045;PMS7003;64741;41.730;44.788;2023-12-20T10:52:05;79.2;66.6;44.6
76045;PMS7003;64741;41.730;44.788;2023-12-20T10:57:13;76.4;62.6;42
76045;PMS7003;64741;41.730;44.788;2023-12-20T11:01:55;73.2;57.8;39
76045;PMS7003;64741;41.730;44.788;2023-12-20T11:07:17;73.8;57.6;37.6
76045;PMS7003;64741;41.730;44.788;2023-12-20T11:12:13;72.3;55.3;37.3
76045;PMS7003;64741;41.730;44.788;2023-12-20T11:16:41;69.4;53.2;36.8
76045;PMS7003;64741;41.730;44.788;2023-12-20T11:21:51;69.6;53.6;35.4
76045;PMS7003;64741;41.730;44.788;2023-12-20T11:27:05;69;52.6;35.2
76045;PMS7003;64741;41.730;44.788;2023-12-20T11:32:31;67.6;51.4;33.8
76045;PMS7003;64741;41.730;44.788;2023-12-20T11:37:09;65.2;50;33.4
76045;PMS7003;64741;41.730;44.788;2023-12-20T11:41:44;64.2;49.2;33
76045;PMS7003;64741;41.730;44.788;2023-12-20T11:46:29;65.6;49.8;32.6
76045;PMS7003;64741;41.730;44.788;2023-12-20T11:51:59;62.6;46.8;31.2
76045;PMS7003;64741;41.730;44.788;2023-12-20T11:57:05;59.2;45.8;30.8
76045;PMS7003;64741;41.730;44.788;2023-12-20T12:01:49;55;43.4;29
76045;PMS7003;64741;41.730;44.788;2023-12-20T12:07:09;54;42.6;28.4
76045;PMS7003;64741;41.730;44.788;2023-12-20T12:12:13;53.8;42;28.4
76045;PMS7003;64741;41.730;44.788;2023-12-20T12:17:13;56;43;28.2
76045;PMS7003;64741;41.730;44.788;2023-12-20T12:22:15;52.4;41.2;28.2
76045;PMS7003;64741;41.730;44.788;2023-12-20T12:26:50;54.8;42;27.8
76045;PMS7003;64741;41.730;44.788;2023-12-20T12:31:57;56.6;44.4;29.6
76045;PMS7003;64741;41.730;44.788;2023-12-20T12:37:17;56;43.4;28.6
76045;PMS7003;64741;41.730;44.788;2023-12-20T12:42:11;57.2;43.8;29.6
76045;PMS7003;64741;41.730;44.788;2023-12-20T12:46:57;65;50.6;33.8
76045;PMS7003;64741;41.730;44.788;2023-12-20T12:52:11;79.6;65.8;45.6
76045;PMS7003;64741;41.730;44.788;2023-12-20T12:57:09;101;90.6;61.6
76045;PMS7003;64741;41.730;44.788;2023-12-20T13:02:13;96.8;84.2;57.4
76045;PMS7003;64741;41.730;44.788;2023-12-20T13:07:15;94.6;83.8;57
76045;PMS7003;64741;41.730;44.788;2023-12-20T13:12:15;85;76.2;52.6
76045;PMS7003;64741;41.730;44.788;2023-12-20T13:17:13;83.2;75.2;53.4
76045;PMS7003;64741;41.730;44.788;2023-12-20T13:22:05;80;72;49.2
76045;PMS7003;64741;41.730;44.788;2023-12-20T13:26:57;79.8;69.8;49.6
76045;PMS7003;64741;41.730;44.788;2023-12-20T13:32:01;78;68.8;49.4
76045;PMS7003;64741;41.730;44.788;2023-12-20T13:37:03;79.4;66.6;47.2
76045;PMS7003;64741;41.730;44.788;2023-12-20T13:42:09;77.4;66.6;47.6
76045;PMS7003;64741;41.730;44.788;2023-12-20T13:47:11;80.6;70.2;49.6
76045;PMS7003;64741;41.730;44.788;2023-12-20T13:52:13;77.8;66.6;46.6
76045;PMS7003;64741;41.730;44.788;2023-12-20T13:57:15;77.4;66.4;47.4
76045;PMS7003;64741;41.730;44.788;2023-12-20T14:02:17;85.4;76.2;56
76045;PMS7003;64741;41.730;44.788;2023-12-20T14:07:13;123.4;106.8;74.8
76045;PMS7003;64741;41.730;44.788;2023-12-20T14:12:05;155.4;135.6;91.2
76045;PMS7003;64741;41.730;44.788;2023-12-20T14:17:15;142.4;126.2;84.8
76045;PMS7003;64741;41.730;44.788;2023-12-20T14:22:09;132.8;115.2;77
76045;PMS7003;64741;41.730;44.788;2023-12-20T14:27:05;122.2;107.8;73
76045;PMS7003;64741;41.730;44.788;2023-12-20T14:31:25;116.6;102.4;69.2
76045;PMS7003;64741;41.730;44.788;2023-12-20T14:36:59;105.8;92.6;61.8
76045;PMS7003;64741;41.730;44.788;2023-12-20T14:42:13;104.4;90.2;61.2
76045;PMS7003;64741;41.730;44.788;2023-12-20T14:46:59;93.2;83.2;56.8
76045;PMS7003;64741;41.730;44.788;2023-12-20T14:52:17;91.4;79.8;53.8
76045;PMS7003;64741;41.730;44.788;2023-12-20T14:57:15;81;72;50.8
76045;PMS7003;64741;41.730;44.788;2023-12-20T15:02:05;78.4;66.2;46
76045;PMS7003;64741;41.730;44.788;2023-12-20T15:07:17;78.8;68.8;46.8
76045;PMS7003;64741;41.730;44.788;2023-12-20T15:11:43;77.4;65.6;45
76045;PMS7003;64741;41.730;44.788;2023-12-20T15:17:03;76;63.6;43.4
76045;PMS7003;64741;41.730;44.788;2023-12-20T15:22:09;73.6;61.8;42.6
76045;PMS7003;64741;41.730;44.788;2023-12-20T15:27:11;74.8;60.2;42.6
76045;PMS7003;64741;41.730;44.788;2023-12-20T15:32:13;73.2;59.8;41
76045;PMS7003;64741;41.730;44.788;2023-12-20T15:37:11;70;56.2;39
76045;PMS7003;64741;41.730;44.788;2023-12-20T15:42:15;70.6;55.2;37.6
76045;PMS7003;64741;41.730;44.788;2023-12-20T15:46:51;67;51.8;35
76045;PMS7003;64741;41.730;44.788;2023-12-20T15:52:01;66.8;51.4;34.6
76045;PMS7003;64741;41.730;44.788;2023-12-20T15:57:11;66;51.2;35.2
76045;PMS7003;64741;41.730;44.788;2023-12-20T16:02:07;64;50.4;34.6
76045;PMS7003;64741;41.730;44.788;2023-12-20T16:06:51;63.4;50;33.2
76045;PMS7003;64741;41.730;44.788;2023-12-20T16:12:09;61.6;48;32.8
76045;PMS7003;64741;41.730;44.788;2023-12-20T16:17:01;60.4;47.8;32
76045;PMS7003;64741;41.730;44.788;2023-12-20T16:22:11;59.8;46;31
76045;PMS7003;64741;41.730;44.788;2023-12-20T16:27:11;61.4;47.4;32.2
76045;PMS7003;64741;41.730;44.788;2023-12-20T16:32:13;57.4;45;30
76045;PMS7003;64741;41.730;44.788;2023-12-20T16:37:15;56.8;44.6;30.2
76045;PMS7003;64741;41.730;44.788;2023-12-20T16:41:41;55.8;43.6;29.4
76045;PMS7003;64741;41.730;44.788;2023-12-20T16:46:57;53.8;43.2;28.6
76045;PMS7003;64741;41.730;44.788;2023-12-20T16:51:55;55.2;43.6;29.8
76045;PMS7003;64741;41.730;44.788;2023-12-20T16:57:11;52.2;41.4;28.6
76045;PMS7003;64741;41.730;44.788;2023-12-20T17:01:51;50.8;40;27.6
76045;PMS7003;64741;41.730;44.788;2023-12-20T17:07:05;49.8;39.6;27.6
76045;PMS7003;64741;41.730;44.788;2023-12-20T17:11:59;51.4;40.8;28
76045;PMS7003;64741;41.730;44.788;2023-12-20T17:17:11;50.2;39;26.2
76045;PMS7003;64741;41.730;44.788;2023-12-20T17:21:55;48;38;26.6
76045;PMS7003;64741;41.730;44.788;2023-12-20T17:27:13;46.4;37.4;25.6
76045;PMS7003;64741;41.730;44.788;2023-12-20T17:32:15;46.2;37;26
76045;PMS7003;64741;41.730;44.788;2023-12-20T17:37:13;47.6;38;26.2
76045;PMS7003;64741;41.730;44.788;2023-12-20T17:42:05;46.4;37.2;26
76045;PMS7003;64741;41.730;44.788;2023-12-20T17:47:15;46.8;37.6;26.4
76045;PMS7003;64741;41.730;44.788;2023-12-20T17:52:11;46.6;38.2;26.4
76045;PMS7003;64741;41.730;44.788;2023-12-20T17:57:07;49.2;39.8;27.2
76045;PMS7003;64741;41.730;44.788;2023-12-20T18:02:07;44;36.6;25.8
76045;PMS7003;64741;41.730;44.788;2023-12-20T18:07:09;46;38;26.8
76045;PMS7003;64741;41.730;44.788;2023-12-20T18:12:13;48.4;38.4;26.4
76045;PMS7003;64741;41.730;44.788;2023-12-20T18:17:15;43.6;36;24.2
76045;PMS7003;64741;41.730;44.788;2023-12-20T18:22:17;45.4;36.4;25.4
76045;PMS7003;64741;41.730;44.788;2023-12-20T18:27:15;46.2;37.8;26.6
76045;PMS7003;64741;41.730;44.788;2023-12-20T18:32:01;46.6;36.2;26
76045;PMS7003;64741;41.730;44.788;2023-12-20T18:37:15;45.6;35.8;24.4
76045;PMS7003;64741;41.730;44.788;2023-12-20T18:42:11;43;35.8;25.6
76045;PMS7003;64741;41.730;44.788;2023-12-20T18:47:05;45.2;35.4;25
76045;PMS7003;64741;41.730;44.788;2023-12-20T18:52:09;44.8;35.4;24.2
76045;PMS7003;64741;41.730;44.788;2023-12-20T18:56:57;42.8;34.6;24.2
76045;PMS7003;64741;41.730;44.788;2023-12-20T19:02:15;45;35.6;24.4
76045;PMS7003;64741;41.730;44.788;2023-12-20T19:07:13;42.8;34.8;23.8
76045;PMS7003;64741;41.730;44.788;2023-12-20T19:12:13;41.8;35;24.4
76045;PMS7003;64741;41.730;44.788;2023-12-20T19:17:13;40.6;34;23
76045;PMS7003;64741;41.730;44.788;2023-12-20T19:22:01;41.4;33.6;23
76045;PMS7003;64741;41.730;44.788;2023-12-20T19:27:17;42.6;33.4;23.2
76045;PMS7003;64741;41.730;44.788;2023-12-20T19:31:49;38.8;33;22.6
76045;PMS7003;64741;41.730;44.788;2023-12-20T19:37:07;40.4;32.6;22.6
76045;PMS7003;64741;41.730;44.788;2023-12-20T19:42:01;39;32.6;22.6
76045;PMS7003;64741;41.730;44.788;2023-12-20T19:46:45;38.4;32.8;22.6
76045;PMS7003;64741;41.730;44.788;2023-12-20T19:52:13;37.4;30.6;21.4
76045;PMS7003;64741;41.730;44.788;2023-12-20T19:57:13;39.8;32.2;22.2
76045;PMS7003;64741;41.730;44.788;2023-12-20T20:02:17;42;32.8;22.4
76045;PMS7003;64741;41.730;44.788;2023-12-20T20:07:15;40.2;32.8;22.8
76045;PMS7003;64741;41.730;44.788;2023-12-20T20:12:05;41;33;23
76045;PMS7003;64741;41.730;44.788;2023-12-20T20:17:15;34.6;30.6;22
76045;PMS7003;64741;41.730;44.788;2023-12-20T20:22:11;37.6;32;22.8
76045;PMS7003;64741;41.730;44.788;2023-12-20T20:27:05;37.4;30.8;21
76045;PMS7003;64741;41.730;44.788;2023-12-20T20:32:11;34.2;30.4;21.8
76045;PMS7003;64741;41.730;44.788;2023-12-20T20:37:09;37.8;30;20.6
76045;PMS7003;64741;41.730;44.788;2023-12-20T20:42:13;33.2;28.8;20.4
76045;PMS7003;64741;41.730;44.788;2023-12-20T20:47:13;37.6;31.6;21.8
76045;PMS7003;64741;41.730;44.788;2023-12-20T20:52:07;32.8;29.8;21
76045;PMS7003;64741;41.730;44.788;2023-12-20T20:57:15;33.4;30.6;21.2
76045;PMS7003;64741;41.730;44.788;2023-12-20T21:02:00;33.2;27.8;19.8
76045;PMS7003;64741;41.730;44.788;2023-12-20T21:07:15;33;28.4;20.4
76045;PMS7003;64741;41.730;44.788;2023-12-20T21:12:15;32.4;28;20.8
76045;PMS7003;64741;41.730;44.788;2023-12-20T21:17:01;32.6;28.2;19
76045;PMS7003;64741;41.730;44.788;2023-12-20T21:22:17;32.6;28.2;19.8
76045;PMS7003;64741;41.730;44.788;2023-12-20T21:27:11;33.4;27.8;19.6
76045;PMS7003;64741;41.730;44.788;2023-12-20T21:32:15;27;24.5;17
76045;PMS7003;64741;41.730;44.788;2023-12-20T21:37:13;27.6;24.6;18.2
76045;PMS7003;64741;41.730;44.788;2023-12-20T21:42:05;32;26.8;19
76045;PMS7003;64741;41.730;44.788;2023-12-20T21:47:15;32.2;27.4;19
76045;PMS7003;64741;41.730;44.788;2023-12-20T21:52:09;29.8;26.8;18.8
76045;PMS7003;64741;41.730;44.788;2023-12-20T21:57:13;26.6;24.8;18.2
76045;PMS7003;64741;41.730;44.788;2023-12-20T22:01:57;26.6;24.6;17.8
76045;PMS7003;64741;41.730;44.788;2023-12-20T22:07:03;29.8;25.2;18
76045;PMS7003;64741;41.730;44.788;2023-12-20T22:11:59;27.4;23.6;16.8
76045;PMS7003;64741;41.730;44.788;2023-12-20T22:17:09;25.2;23;17.4
76045;PMS7003;64741;41.730;44.788;2023-12-20T22:21:59;27.4;23;17.6
76045;PMS7003;64741;41.730;44.788;2023-12-20T22:27:13;23.6;21.4;15.8
76045;PMS7003;64741;41.730;44.788;2023-12-20T22:32:07;23.4;20.4;14.6
76045;PMS7003;64741;41.730;44.788;2023-12-20T22:37:15;23.2;20.2;14.4
76045;PMS7003;64741;41.730;44.788;2023-12-20T22:41:59;21.4;18;13.2
76045;PMS7003;64741;41.730;44.788;2023-12-20T22:47:15;25.6;20.2;15.2
76045;PMS7003;64741;41.730;44.788;2023-12-20T22:51:47;22.6;20.2;14
76045;PMS7003;64741;41.730;44.788;2023-12-20T22:57:01;21.8;18.6;13.8
76045;PMS7003;64741;41.730;44.788;2023-12-20T23:02:15;24.2;20.2;14.6
76045;PMS7003;64741;41.730;44.788;2023-12-20T23:07:09;20.2;16.6;12.4
76045;PMS7003;64741;41.730;44.788;2023-12-20T23:12:17;22.2;19.4;14
76045;PMS7003;64741;41.730;44.788;2023-12-20T23:17:15;18.8;17.4;12.2
76045;PMS7003;64741;41.730;44.788;2023-12-20T23:22:07;20.6;17;12.4
76045;PMS7003;64741;41.730;44.788;2023-12-20T23:27:17;19.2;18;13.2
76045;PMS7003;64741;41.730;44.788;2023-12-20T23:31:25;20.2;18.6;14
76045;PMS7003;64741;41.730;44.788;2023-12-20T23:37:13;20;17.8;12.4
76045;PMS7003;64741;41.730;44.788;2023-12-20T23:42:13;19.8;17;13
76045;PMS7003;64741;41.730;44.788;2023-12-20T23:47:05;16.6;15;11.8
76045;PMS7003;64741;41.730;44.788;2023-12-20T23:52:13;21.2;18;12
76045;PMS7003;64741;41.730;44.788;2023-12-20T23:57:11;19;15.6;11.8
